createdAt,value
2019-05-17T00:00:08.840Z,17.40
2019-05-17T00:02:38.766Z,17.77
2019-05-17T00:05:08.541Z,18.17
2019-05-17T00:07:37.920Z,17.67
2019-05-17T00:10:07.654Z,16.70
2019-05-17T00:12:37.127Z,17.03
2019-05-17T00:15:07.895Z,16.27
2019-05-17T00:17:38.007Z,16.80
2019-05-17T00:20:09.287Z,16.93
2019-05-17T00:22:38.752Z,16.93
2019-05-17T00:25:09.228Z,16.50
2019-05-17T00:27:39.480Z,17.20
2019-05-17T00:30:10.241Z,17.57
2019-05-17T00:32:39.622Z,16.37
2019-05-17T00:35:09.344Z,17.20
2019-05-17T00:37:38.794Z,17.20
2019-05-17T00:40:08.927Z,16.77
2019-05-17T00:42:38.310Z,16.60
2019-05-17T00:45:08.887Z,17.33
2019-05-17T00:47:38.239Z,17.60
2019-05-17T00:50:07.915Z,17.47
2019-05-17T00:52:37.859Z,16.37
2019-05-17T00:55:07.827Z,17.90
2019-05-17T00:57:37.325Z,17.90
2019-05-17T01:00:08.532Z,16.97
2019-05-17T01:02:38.450Z,17.90
2019-05-17T01:05:08.469Z,17.50
2019-05-17T01:07:37.972Z,18.37
2019-05-17T01:10:08.278Z,16.90
2019-05-17T01:12:37.665Z,17.03
2019-05-17T01:15:08.501Z,18.70
2019-05-17T01:17:38.734Z,17.03
2019-05-17T01:20:08.742Z,16.70
2019-05-17T01:22:38.351Z,17.50
2019-05-17T01:25:08.542Z,17.13
2019-05-17T01:27:38.328Z,18.10
2019-05-17T01:30:08.387Z,17.03
2019-05-17T01:32:38.015Z,16.80
2019-05-17T01:35:08.590Z,17.30
2019-05-17T01:37:38.020Z,17.27
2019-05-17T01:40:07.966Z,17.27
2019-05-17T01:42:37.687Z,16.73
2019-05-17T01:45:08.369Z,17.77
2019-05-17T01:47:37.727Z,17.33
2019-05-17T01:50:10.677Z,17.07
2019-05-17T01:52:40.023Z,17.60
2019-05-17T01:55:11.006Z,17.97
2019-05-17T01:57:40.934Z,17.23
2019-05-17T02:00:12.022Z,18.00
2019-05-17T02:02:43.638Z,17.87
2019-05-17T02:05:17.104Z,17.83
2019-05-17T02:07:46.546Z,16.87
2019-05-17T02:10:17.023Z,16.80
2019-05-17T02:12:49.095Z,17.30
2019-05-17T02:15:18.119Z,16.50
2019-05-17T02:17:47.632Z,17.10
2019-05-17T02:20:19.404Z,16.47
2019-05-17T02:22:49.048Z,16.33
2019-05-17T02:25:18.638Z,17.53
2019-05-17T02:27:48.097Z,17.03
2019-05-17T02:30:18.317Z,16.70
2019-05-17T02:32:49.064Z,16.57
2019-05-17T02:35:22.875Z,16.93
2019-05-17T02:37:53.484Z,16.33
2019-05-17T02:40:22.838Z,16.87
2019-05-17T02:42:53.532Z,17.20
2019-05-17T02:45:23.592Z,16.63
2019-05-17T02:47:53.825Z,17.17
2019-05-17T02:50:23.551Z,16.37
2019-05-17T02:52:53.078Z,16.27
2019-05-17T02:55:23.510Z,16.23
2019-05-17T02:57:53.146Z,16.23
2019-05-17T03:00:23.977Z,16.27
2019-05-17T03:02:53.894Z,16.33
2019-05-17T03:05:23.461Z,15.80
2019-05-17T03:07:53.050Z,16.27
2019-05-17T03:10:28.342Z,16.03
2019-05-17T03:12:53.647Z,15.57
2019-05-17T03:15:23.601Z,15.93
2019-05-17T03:17:53.878Z,14.90
2019-05-17T03:20:23.497Z,16.03
2019-05-17T03:22:53.334Z,15.80
2019-05-17T03:25:23.937Z,15.77
2019-05-17T03:27:53.898Z,15.40
2019-05-17T03:30:26.286Z,13.87
2019-05-17T03:32:57.084Z,14.50
2019-05-17T03:35:27.338Z,13.73
2019-05-17T03:37:56.993Z,13.63
2019-05-17T03:40:58.493Z,14.03
2019-05-17T03:42:58.025Z,13.40
2019-05-17T03:45:27.463Z,13.70
2019-05-17T03:47:56.857Z,13.53
2019-05-17T03:50:26.545Z,13.70
2019-05-17T03:52:56.063Z,12.67
2019-05-17T03:55:25.439Z,13.00
2019-05-17T03:57:54.944Z,13.27
2019-05-17T04:00:25.635Z,13.90
2019-05-17T04:02:55.080Z,13.90
2019-05-17T04:05:24.671Z,13.07
2019-05-17T04:07:56.927Z,13.73
2019-05-17T04:10:26.739Z,14.43
2019-05-17T04:12:56.263Z,13.70
2019-05-17T04:15:27.568Z,14.20
2019-05-17T04:17:57.652Z,14.43
2019-05-17T04:20:27.145Z,14.47
2019-05-17T04:23:03.468Z,14.33
2019-05-17T04:25:33.496Z,15.00
2019-05-17T04:28:03.634Z,14.53
2019-05-17T04:30:33.313Z,14.47
2019-05-17T04:33:03.723Z,15.73
2019-05-17T04:35:35.449Z,13.77
2019-05-17T04:38:04.899Z,13.67
2019-05-17T04:40:35.143Z,13.87
2019-05-17T04:43:04.605Z,14.63
2019-05-17T04:45:34.292Z,14.43
2019-05-17T04:48:04.437Z,14.67
2019-05-17T04:50:34.285Z,13.93
2019-05-17T04:53:04.391Z,14.33
2019-05-17T04:55:34.399Z,13.57
2019-05-17T04:58:04.504Z,14.40
2019-05-17T05:00:34.491Z,13.33
2019-05-17T05:03:04.603Z,13.73
2019-05-17T05:05:34.156Z,14.00
2019-05-17T05:08:05.681Z,14.37
2019-05-17T05:10:38.534Z,13.17
2019-05-17T05:13:07.926Z,11.37
2019-05-17T05:15:44.010Z,11.90
2019-05-17T05:18:13.570Z,11.77
2019-05-17T05:20:44.494Z,12.13
2019-05-17T05:23:13.968Z,11.87
2019-05-17T05:25:43.458Z,11.60
2019-05-17T05:28:13.298Z,11.63
2019-05-17T05:30:42.762Z,11.23
2019-05-17T05:33:13.260Z,11.13
2019-05-17T05:35:43.011Z,10.80
2019-05-17T05:38:13.298Z,11.17
2019-05-17T05:40:43.853Z,10.93
2019-05-17T05:43:14.115Z,10.47
2019-05-17T05:45:43.495Z,10.77
2019-05-17T05:48:13.270Z,10.87
2019-05-17T05:50:43.597Z,10.60
2019-05-17T05:53:13.681Z,11.77
2019-05-17T05:55:43.441Z,11.67
2019-05-17T05:58:13.545Z,11.73
2019-05-17T06:00:43.144Z,11.23
2019-05-17T06:03:13.228Z,12.00
2019-05-17T06:05:42.898Z,12.10
2019-05-17T06:08:13.620Z,12.97
2019-05-17T06:10:43.286Z,11.20
2019-05-17T06:13:14.308Z,11.83
2019-05-17T06:15:43.971Z,10.87
2019-05-17T06:18:13.540Z,10.20
2019-05-17T06:20:43.210Z,10.60
2019-05-17T06:23:13.738Z,9.97
2019-05-17T06:25:43.863Z,10.00
2019-05-17T06:28:13.944Z,9.97
2019-05-17T06:30:43.508Z,9.30
2019-05-17T06:33:27.028Z,8.90
2019-05-17T06:35:45.209Z,7.80
2019-05-17T06:38:14.997Z,7.03
2019-05-17T06:40:44.449Z,6.67
2019-05-17T06:43:14.536Z,6.90
2019-05-17T06:45:44.054Z,7.17
2019-05-17T06:48:13.847Z,7.20
2019-05-17T06:50:43.452Z,7.83
2019-05-17T06:53:13.428Z,7.40
2019-05-17T06:55:43.045Z,7.53
2019-05-17T06:58:13.043Z,7.97
2019-05-17T07:00:42.592Z,7.83
2019-05-17T07:03:12.494Z,8.07
2019-05-17T07:05:43.771Z,8.10
2019-05-17T07:08:13.253Z,8.03
2019-05-17T07:10:43.099Z,8.30
2019-05-17T07:13:13.509Z,7.77
2019-05-17T07:15:47.671Z,7.73
2019-05-17T07:18:14.485Z,7.80
2019-05-17T07:20:43.892Z,7.63
2019-05-17T07:23:13.829Z,7.87
2019-05-17T07:25:43.677Z,7.57
2019-05-17T07:28:13.345Z,8.23
2019-05-17T07:30:44.477Z,7.10
2019-05-17T07:33:14.370Z,7.50
2019-05-17T07:35:44.278Z,7.30
2019-05-17T07:38:13.636Z,7.23
2019-05-17T07:40:45.955Z,7.80
2019-05-17T07:43:15.978Z,6.97
2019-05-17T07:45:46.329Z,7.63
2019-05-17T07:48:15.792Z,7.80
2019-05-17T07:50:45.372Z,7.30
2019-05-17T07:53:14.976Z,7.13
2019-05-17T07:55:44.499Z,7.13
2019-05-17T07:58:14.107Z,7.53
2019-05-17T08:00:43.553Z,7.47
2019-05-17T08:03:13.680Z,6.93
2019-05-17T08:05:43.206Z,6.77
2019-05-17T08:08:14.322Z,6.70
2019-05-17T08:10:43.667Z,5.20
2019-05-17T08:13:25.578Z,5.07
2019-05-17T08:15:44.414Z,4.33
2019-05-17T08:18:13.803Z,5.07
2019-05-17T08:20:43.223Z,5.10
2019-05-17T08:23:12.976Z,5.33
2019-05-17T08:25:52.770Z,5.83
2019-05-17T08:28:14.285Z,6.30
2019-05-17T08:30:44.186Z,6.77
2019-05-17T08:33:13.967Z,6.60
2019-05-17T08:35:43.306Z,6.43
2019-05-17T08:38:12.694Z,6.27
2019-05-17T08:40:42.233Z,6.27
2019-05-17T08:43:12.647Z,6.50
2019-05-17T08:45:44.366Z,6.73
2019-05-17T08:48:13.845Z,6.73
2019-05-17T08:50:43.230Z,7.23
2019-05-17T08:53:12.989Z,7.77
2019-05-17T08:55:42.433Z,8.37
2019-05-17T08:58:11.923Z,8.67
2019-05-17T09:00:43.089Z,7.63
2019-05-17T09:03:13.801Z,8.43
2019-05-17T09:05:43.139Z,8.67
2019-05-17T09:08:12.687Z,7.90
2019-05-17T09:10:42.131Z,7.97
2019-05-17T09:13:14.676Z,8.90
2019-05-17T09:15:44.414Z,8.23
2019-05-17T09:18:13.933Z,8.37
2019-05-17T09:20:43.641Z,8.70
2019-05-17T09:23:13.592Z,8.00
2019-05-17T09:25:43.619Z,8.87
2019-05-17T09:28:13.170Z,8.63
2019-05-17T09:30:42.619Z,8.53
2019-05-17T09:33:12.117Z,9.37
2019-05-17T09:35:41.662Z,9.27
2019-05-17T09:38:11.135Z,8.53
2019-05-17T09:40:40.586Z,9.03
2019-05-17T09:43:10.552Z,9.23
2019-05-17T09:45:40.684Z,9.43
2019-05-17T09:48:10.729Z,9.30
2019-05-17T09:50:40.577Z,10.27
2019-05-17T09:53:10.686Z,10.20
2019-05-17T09:55:40.540Z,9.43
2019-05-17T09:58:10.182Z,9.77
2019-05-17T10:00:39.620Z,9.77
2019-05-17T10:03:09.903Z,9.30
2019-05-17T10:05:40.680Z,9.80
2019-05-17T10:08:11.156Z,10.10
2019-05-17T10:10:40.671Z,9.63
2019-05-17T10:13:10.742Z,9.87
2019-05-17T10:15:42.014Z,9.17
2019-05-17T10:18:11.551Z,10.27
2019-05-17T10:20:41.125Z,9.83
2019-05-17T10:23:10.939Z,8.60
2019-05-17T10:25:40.726Z,8.73
2019-05-17T10:28:10.324Z,9.10
2019-05-17T10:30:40.303Z,9.53
2019-05-17T10:33:10.245Z,10.20
2019-05-17T10:35:40.849Z,9.10
2019-05-17T10:38:10.715Z,9.67
2019-05-17T10:40:40.817Z,10.47
2019-05-17T10:43:11.214Z,10.23
2019-05-17T10:45:40.691Z,8.97
2019-05-17T10:48:10.581Z,9.73
2019-05-17T10:50:41.818Z,8.03
2019-05-17T10:53:11.388Z,9.37
2019-05-17T10:55:40.819Z,9.00
2019-05-17T10:58:10.486Z,8.17
2019-05-17T11:00:41.227Z,8.50
2019-05-17T11:03:11.282Z,8.20
2019-05-17T11:05:40.637Z,6.97
2019-05-17T11:08:10.977Z,7.57
2019-05-17T11:10:40.615Z,7.73
2019-05-17T11:13:10.317Z,7.63
2019-05-17T11:15:41.099Z,7.50
2019-05-17T11:18:10.720Z,7.47
2019-05-17T11:20:40.340Z,9.17
2019-05-17T11:23:09.835Z,8.87
2019-05-17T11:25:45.044Z,9.27
2019-05-17T11:28:11.218Z,9.13
2019-05-17T11:30:40.627Z,9.93
2019-05-17T11:33:12.245Z,9.73
2019-05-17T11:35:41.635Z,10.13
2019-05-17T11:38:11.388Z,9.47
2019-05-17T11:40:41.400Z,9.13
2019-05-17T11:43:11.634Z,9.23
2019-05-17T11:45:41.049Z,9.93
2019-05-17T11:48:10.737Z,9.00
2019-05-17T11:50:40.082Z,9.30
2019-05-17T11:53:09.469Z,10.03
2019-05-17T11:55:38.889Z,10.63
2019-05-17T11:58:08.411Z,10.93
2019-05-17T12:00:38.000Z,11.57
2019-05-17T12:03:07.345Z,10.90
2019-05-17T12:05:36.851Z,11.00
2019-05-17T12:08:08.667Z,11.83
2019-05-17T12:10:37.762Z,11.03
2019-05-17T12:13:07.277Z,10.43
2019-05-17T12:15:45.067Z,11.97
2019-05-17T12:18:07.886Z,11.37
2019-05-17T12:20:38.995Z,11.70
2019-05-17T12:23:08.593Z,10.57
2019-05-17T12:25:38.042Z,10.97
2019-05-17T12:28:07.491Z,11.33
2019-05-17T12:30:37.351Z,10.90
2019-05-17T12:33:07.658Z,10.53
2019-05-17T12:35:37.185Z,11.30
2019-05-17T12:38:06.604Z,11.20
2019-05-17T12:40:36.098Z,10.93
2019-05-17T12:43:05.542Z,10.53
2019-05-17T12:45:35.231Z,10.73
2019-05-17T12:48:04.801Z,11.00
2019-05-17T12:50:36.277Z,10.07
2019-05-17T12:53:05.720Z,9.90
2019-05-17T12:55:37.023Z,9.37
2019-05-17T12:58:06.554Z,9.70
2019-05-17T13:00:37.924Z,9.13
2019-05-17T13:03:08.801Z,9.20
2019-05-17T13:05:38.278Z,8.80
2019-05-17T13:08:07.706Z,9.13
2019-05-17T13:10:37.257Z,9.50
2019-05-17T13:13:09.365Z,9.20
2019-05-17T13:15:38.012Z,9.13
2019-05-17T13:18:07.912Z,9.17
2019-05-17T13:20:37.399Z,9.03
2019-05-17T13:23:06.766Z,8.77
2019-05-17T13:25:36.205Z,8.73
2019-05-17T13:28:07.966Z,9.53
2019-05-17T13:30:37.893Z,9.17
2019-05-17T13:33:07.423Z,9.10
2019-05-17T13:35:39.778Z,9.53
2019-05-17T13:38:09.584Z,8.50
2019-05-17T13:40:40.984Z,8.47
2019-05-17T13:43:10.537Z,8.90
2019-05-17T13:45:43.675Z,8.17
2019-05-17T13:48:11.459Z,9.03
2019-05-17T13:50:41.066Z,9.00
2019-05-17T13:53:10.675Z,8.53
2019-05-17T13:55:40.253Z,8.50
2019-05-17T13:58:09.912Z,8.43
2019-05-17T14:00:39.352Z,7.87
2019-05-17T14:03:09.234Z,7.27
2019-05-17T14:05:38.657Z,7.47
2019-05-17T14:08:08.188Z,7.10
2019-05-17T14:10:37.699Z,6.23
2019-05-17T14:13:07.133Z,6.53
2019-05-17T14:15:36.761Z,6.43
2019-05-17T14:18:06.401Z,6.77
2019-05-17T14:20:35.850Z,6.43
2019-05-17T14:23:05.518Z,7.17
2019-05-17T14:25:34.933Z,7.07
2019-05-17T14:28:04.919Z,6.13
2019-05-17T14:30:34.309Z,6.03
2019-05-17T14:33:03.948Z,6.30
2019-05-17T14:35:34.228Z,7.57
2019-05-17T14:38:03.730Z,6.50
2019-05-17T14:41:03.989Z,7.37
2019-05-17T14:43:04.469Z,6.83
2019-05-17T14:45:33.877Z,7.00
2019-05-17T14:48:03.266Z,6.70
2019-05-17T14:50:32.827Z,6.57
2019-05-17T14:53:02.279Z,6.27
2019-05-17T14:55:31.755Z,6.73
2019-05-17T14:58:01.510Z,7.03
2019-05-17T15:00:31.017Z,7.17
2019-05-17T15:03:00.519Z,6.63
2019-05-17T15:05:30.017Z,7.10
2019-05-17T15:07:59.420Z,6.77
2019-05-17T15:10:28.904Z,7.03
2019-05-17T15:13:01.455Z,6.73
2019-05-17T15:15:29.527Z,6.50
2019-05-17T15:17:59.167Z,6.83
2019-05-17T15:20:28.501Z,6.80
2019-05-17T15:22:58.055Z,7.27
2019-05-17T15:25:27.635Z,6.40
2019-05-17T15:27:57.043Z,6.43
2019-05-17T15:30:26.727Z,6.50
2019-05-17T15:32:56.455Z,6.77
2019-05-17T15:35:25.900Z,7.30
2019-05-17T15:37:55.679Z,7.60
2019-05-17T15:40:25.107Z,7.53
2019-05-17T15:42:54.724Z,8.97
2019-05-17T15:45:24.800Z,9.07
2019-05-17T15:47:54.161Z,9.47
2019-05-17T15:50:24.468Z,10.07
2019-05-17T15:52:54.978Z,9.30
2019-05-17T15:55:25.170Z,9.80
2019-05-17T15:57:54.713Z,10.27
2019-05-17T16:00:24.422Z,10.73
2019-05-17T16:02:53.911Z,11.00
2019-05-17T16:05:23.716Z,10.27
2019-05-17T16:07:53.320Z,11.40
2019-05-17T16:10:23.076Z,10.93
2019-05-17T16:13:02.583Z,12.30
2019-05-17T16:15:24.438Z,12.87
2019-05-17T16:17:54.169Z,13.00
2019-05-17T16:20:23.924Z,12.47
2019-05-17T16:22:53.848Z,12.77
2019-05-17T16:25:23.979Z,12.73
2019-05-17T16:27:53.676Z,12.03
2019-05-17T16:30:23.556Z,13.20
2019-05-17T16:32:53.458Z,13.03
2019-05-17T16:35:23.546Z,12.93
2019-05-17T16:37:53.421Z,12.83
2019-05-17T16:40:23.471Z,12.43
2019-05-17T16:42:53.477Z,13.90
2019-05-17T16:45:23.253Z,14.13
2019-05-17T16:47:53.037Z,13.43
2019-05-17T16:50:22.720Z,13.30
2019-05-17T16:53:04.954Z,12.90
2019-05-17T16:55:26.023Z,11.83
2019-05-17T16:57:55.850Z,12.30
2019-05-17T17:00:35.073Z,13.10
2019-05-17T17:03:05.341Z,12.60
2019-05-17T17:05:35.631Z,12.50
2019-05-17T17:08:05.694Z,12.47
2019-05-17T17:10:35.506Z,13.33
2019-05-17T17:13:05.595Z,12.10
2019-05-17T17:15:35.599Z,12.67
2019-05-17T17:18:05.649Z,12.43
2019-05-17T17:20:35.249Z,13.03
2019-05-17T17:23:05.110Z,12.73
2019-05-17T17:25:34.924Z,13.17
2019-05-17T17:28:06.152Z,12.27
2019-05-17T17:30:36.593Z,12.57
2019-05-17T17:33:06.316Z,12.70
2019-05-17T17:35:36.164Z,12.97
2019-05-17T17:38:05.834Z,13.03
2019-05-17T17:40:35.583Z,12.83
2019-05-17T17:43:05.196Z,12.90
2019-05-17T17:45:34.793Z,12.07
2019-05-17T17:48:04.510Z,13.00
2019-05-17T17:50:34.342Z,13.10
2019-05-17T17:53:04.317Z,12.70
2019-05-17T17:55:34.067Z,12.77
2019-05-17T17:58:03.659Z,12.50
2019-05-17T18:00:33.544Z,13.33
2019-05-17T18:03:03.039Z,13.47
2019-05-17T18:05:33.046Z,6.30
2019-05-17T18:08:02.983Z,10.98
2019-05-17T18:10:34.539Z,9.30
2019-05-17T18:13:04.096Z,11.90
2019-05-17T18:15:41.951Z,9.47
2019-05-17T18:18:12.097Z,11.17
2019-05-17T18:20:43.888Z,12.10
2019-05-17T18:23:14.159Z,16.83
2019-05-17T18:25:45.831Z,18.67
2019-05-17T18:28:15.586Z,11.73
2019-05-17T18:30:45.328Z,10.50
2019-05-17T18:33:14.966Z,9.20
2019-05-17T18:35:44.847Z,11.67
2019-05-17T18:38:16.248Z,10.70
2019-05-17T18:40:45.804Z,11.80
2019-05-17T18:43:15.838Z,12.10
2019-05-17T18:45:44.771Z,12.33
2019-05-17T18:48:14.650Z,9.57
2019-05-17T18:50:44.376Z,8.43
2019-05-17T18:53:16.967Z,8.20
2019-05-17T18:55:45.510Z,11.27
2019-05-17T18:58:17.785Z,11.33
2019-05-17T19:00:47.509Z,10.83
2019-05-17T19:03:17.752Z,11.20
2019-05-17T19:05:47.893Z,11.03
2019-05-17T19:08:17.638Z,10.97
2019-05-17T19:10:47.569Z,11.13
2019-05-17T19:13:17.296Z,11.10
2019-05-17T19:15:47.428Z,10.63
2019-05-17T19:18:17.206Z,10.90
2019-05-17T19:20:47.107Z,11.53
2019-05-17T19:23:16.966Z,11.23
2019-05-17T19:25:46.823Z,11.20
2019-05-17T19:28:16.456Z,11.70
2019-05-17T19:30:46.021Z,10.83
2019-05-17T19:33:15.596Z,10.67
2019-05-17T19:35:45.282Z,10.70
2019-05-17T19:38:14.925Z,10.27
2019-05-17T19:40:44.611Z,10.87
2019-05-17T19:43:14.300Z,10.20
2019-05-17T19:45:44.336Z,11.20
2019-05-17T19:48:13.868Z,11.23
2019-05-17T19:50:43.411Z,11.10
2019-05-17T19:53:12.929Z,10.80
2019-05-17T19:55:42.637Z,10.77
2019-05-17T19:58:12.221Z,10.10
2019-05-17T20:00:41.812Z,11.47
2019-05-17T20:03:11.325Z,11.03
2019-05-17T20:05:40.887Z,12.00
2019-05-17T20:08:10.669Z,11.43
2019-05-17T20:10:40.308Z,11.17
2019-05-17T20:13:09.853Z,11.13
2019-05-17T20:15:39.422Z,10.53
2019-05-17T20:18:09.810Z,11.77
2019-05-17T20:20:39.524Z,13.33
2019-05-17T20:23:09.153Z,12.67
2019-05-17T20:25:38.796Z,12.53
2019-05-17T20:28:08.322Z,11.83
2019-05-17T20:30:39.286Z,11.47
2019-05-17T20:33:08.691Z,11.07
2019-05-17T20:35:38.265Z,10.87
2019-05-17T20:38:08.286Z,10.90
2019-05-17T20:40:37.877Z,10.83
2019-05-17T20:43:07.353Z,10.67
2019-05-17T20:45:37.092Z,11.27
2019-05-17T20:48:06.745Z,11.80
2019-05-17T20:50:36.915Z,12.23
2019-05-17T20:53:18.265Z,13.13
2019-05-17T20:55:37.829Z,11.47
2019-05-17T20:58:07.719Z,11.63
2019-05-17T21:00:37.935Z,12.37
2019-05-17T21:03:07.575Z,11.43
2019-05-17T21:05:37.314Z,10.87
2019-05-17T21:08:06.904Z,12.67
2019-05-17T21:10:36.428Z,11.63
2019-05-17T21:13:06.020Z,12.03
2019-05-17T21:15:47.045Z,11.37
2019-05-17T21:18:07.310Z,12.20
2019-05-17T21:20:37.628Z,11.43
2019-05-17T21:23:07.490Z,11.87
2019-05-17T21:25:37.006Z,11.97
2019-05-17T21:28:06.767Z,12.90
2019-05-17T21:30:36.472Z,12.20
2019-05-17T21:33:06.117Z,12.53
2019-05-17T21:35:35.578Z,12.03
2019-05-17T21:38:07.067Z,11.57
2019-05-17T21:40:40.896Z,11.90
2019-05-17T21:43:10.598Z,12.23
2019-05-17T21:45:41.696Z,12.47
2019-05-17T21:48:11.106Z,7.90
2019-05-17T21:50:40.527Z,12.03
2019-05-17T21:53:10.076Z,12.07
2019-05-17T21:55:39.469Z,13.40
2019-05-17T21:58:09.013Z,12.33
2019-05-17T22:01:17.584Z,12.33
2019-05-17T22:03:47.443Z,12.73
2019-05-17T22:06:17.358Z,13.43
2019-05-17T22:08:47.244Z,12.43
2019-05-17T22:11:16.895Z,13.27
2019-05-17T22:13:46.388Z,13.03
2019-05-17T22:16:19.647Z,13.13
2019-05-17T22:18:47.397Z,13.10
2019-05-17T22:21:16.969Z,13.27
2019-05-17T22:23:46.627Z,13.30
2019-05-17T22:26:16.061Z,12.70
2019-05-17T22:28:45.484Z,13.47
2019-05-17T22:31:15.040Z,14.07
2019-05-17T22:33:44.620Z,13.60
2019-05-17T22:36:14.075Z,13.67
2019-05-17T22:38:43.814Z,13.63
2019-05-17T22:41:13.565Z,13.87
2019-05-17T22:43:43.211Z,14.13
2019-05-17T22:46:12.795Z,13.57
2019-05-17T22:48:42.291Z,14.10
2019-05-17T22:51:11.934Z,13.40
2019-05-17T22:53:41.694Z,13.60
2019-05-17T22:56:11.155Z,13.70
2019-05-17T22:58:41.176Z,13.70
2019-05-17T23:01:11.091Z,13.93
2019-05-17T23:03:40.731Z,12.93
2019-05-17T23:06:10.152Z,14.17
2019-05-17T23:08:39.720Z,13.93
2019-05-17T23:11:09.186Z,13.77
2019-05-17T23:13:38.601Z,13.07
2019-05-17T23:16:10.768Z,13.23
2019-05-17T23:18:40.120Z,14.23
2019-05-17T23:21:09.512Z,14.03
2019-05-17T23:23:39.234Z,14.00
2019-05-17T23:26:08.868Z,15.17
2019-05-17T23:28:38.588Z,15.03
2019-05-17T23:31:08.093Z,14.80
2019-05-17T23:33:37.519Z,14.63
2019-05-17T23:36:06.904Z,14.07
2019-05-17T23:38:36.416Z,15.17
2019-05-17T23:41:05.778Z,14.47
2019-05-17T23:43:35.414Z,14.63
2019-05-17T23:46:05.242Z,14.77
2019-05-17T23:48:34.706Z,14.63
2019-05-17T23:51:04.584Z,14.67
2019-05-17T23:53:34.325Z,14.13
2019-05-17T23:56:04.495Z,15.53
2019-05-17T23:58:34.287Z,14.63
